createdAt,value
2019-04-13T00:01:51.078Z,18.37
2019-04-13T00:04:28.974Z,17.30
2019-04-13T00:06:49.200Z,20.27
2019-04-13T00:09:17.047Z,16.20
2019-04-13T00:11:45.432Z,20.40
2019-04-13T00:14:11.995Z,17.10
2019-04-13T00:16:39.010Z,14.17
2019-04-13T00:19:05.962Z,19.47
2019-04-13T00:21:32.335Z,18.93
2019-04-13T00:23:58.783Z,18.13
2019-04-13T00:26:25.251Z,19.27
2019-04-13T00:28:51.615Z,18.13
2019-04-13T00:31:17.999Z,17.63
2019-04-13T00:33:44.452Z,19.57
2019-04-13T00:36:10.918Z,20.27
2019-04-13T00:38:37.468Z,17.67
2019-04-13T00:41:04.034Z,20.30
2019-04-13T00:43:30.485Z,18.70
2019-04-13T00:45:57.042Z,17.53
2019-04-13T00:48:23.486Z,17.03
2019-04-13T00:50:49.963Z,16.43
2019-04-13T00:53:16.511Z,16.83
2019-04-13T00:55:42.882Z,22.00
2019-04-13T00:58:09.323Z,20.23
2019-04-13T01:00:35.875Z,18.07
2019-04-13T01:03:02.272Z,16.80
2019-04-13T01:05:28.719Z,19.80
2019-04-13T01:07:55.186Z,17.57
2019-04-13T01:10:21.742Z,21.30
2019-04-13T01:12:48.109Z,20.47
2019-04-13T01:15:14.547Z,18.60
2019-04-13T01:17:41.122Z,20.07
2019-04-13T01:20:07.675Z,23.40
2019-04-13T01:22:34.163Z,20.33
2019-04-13T01:25:00.606Z,18.40
2019-04-13T01:27:26.995Z,20.23
2019-04-13T01:29:53.375Z,20.33
2019-04-13T01:32:19.855Z,18.60
2019-04-13T01:34:46.304Z,23.00
2019-04-13T01:37:12.771Z,20.40
2019-04-13T01:39:39.215Z,20.10
2019-04-13T01:42:05.791Z,22.13
2019-04-13T01:44:32.238Z,21.63
2019-04-13T01:50:09.518Z,22.13
2019-04-13T01:52:36.251Z,20.93
2019-04-13T01:55:03.191Z,23.30
2019-04-13T01:57:29.754Z,21.27
2019-04-13T01:59:56.283Z,20.77
2019-04-13T02:02:24.550Z,22.50
2019-04-13T02:04:52.894Z,22.00
2019-04-13T02:07:20.393Z,22.53
2019-04-13T02:09:48.645Z,22.63
2019-04-13T02:12:15.022Z,23.23
2019-04-13T02:14:41.466Z,24.20
2019-04-13T02:17:07.911Z,25.00
2019-04-13T02:19:34.283Z,21.93
2019-04-13T02:22:00.835Z,24.57
2019-04-13T02:24:27.299Z,23.03
2019-04-13T02:26:53.644Z,23.67
2019-04-13T02:29:20.159Z,25.60
2019-04-13T02:31:46.610Z,22.10
2019-04-13T02:34:13.090Z,23.13
2019-04-13T02:36:39.433Z,22.87
2019-04-13T02:39:05.909Z,24.07
2019-04-13T02:41:32.351Z,21.40
2019-04-13T02:43:58.708Z,21.57
2019-04-13T02:46:25.270Z,26.07
2019-04-13T02:48:51.747Z,22.90
2019-04-13T02:51:18.302Z,22.00
2019-04-13T02:53:45.891Z,24.97
2019-04-13T02:56:12.310Z,24.33
2019-04-13T02:58:39.489Z,23.07
2019-04-13T03:01:05.990Z,22.00
2019-04-13T03:03:32.471Z,24.93
2019-04-13T03:05:59.019Z,21.97
2019-04-13T03:08:25.398Z,22.60
2019-04-13T03:10:51.851Z,21.87
2019-04-13T03:13:18.422Z,22.03
2019-04-13T03:15:46.775Z,22.47
2019-04-13T03:18:15.162Z,26.53
2019-04-13T03:20:41.634Z,21.27
2019-04-13T03:23:08.083Z,24.73
2019-04-13T03:25:34.584Z,25.93
2019-04-13T03:28:01.034Z,23.90
2019-04-13T03:30:29.456Z,25.00
2019-04-13T03:32:55.917Z,24.43
2019-04-13T03:35:22.390Z,24.53
2019-04-13T03:37:48.966Z,22.00
2019-04-13T03:40:15.447Z,25.00
2019-04-13T03:42:41.996Z,24.00
2019-04-13T03:45:08.754Z,26.23
2019-04-13T03:47:35.303Z,24.47
2019-04-13T03:50:02.603Z,22.70
2019-04-13T03:52:28.987Z,24.67
2019-04-13T03:54:55.671Z,26.53
2019-04-13T03:57:22.043Z,22.87
2019-04-13T03:59:48.615Z,24.40
2019-04-13T04:02:15.067Z,27.03
2019-04-13T04:04:41.648Z,24.27
2019-04-13T04:07:07.993Z,25.30
2019-04-13T04:09:34.451Z,26.30
2019-04-13T04:12:00.890Z,24.53
2019-04-13T04:14:27.378Z,27.13
2019-04-13T04:16:53.804Z,25.23
2019-04-13T04:19:20.256Z,25.47
2019-04-13T04:21:46.723Z,25.70
2019-04-13T04:24:13.175Z,26.10
2019-04-13T04:26:39.666Z,26.13
2019-04-13T04:29:06.039Z,23.77
2019-04-13T04:31:32.602Z,22.17
2019-04-13T04:33:59.155Z,30.27
2019-04-13T04:36:25.624Z,24.57
2019-04-13T04:38:52.075Z,24.70
2019-04-13T04:41:18.439Z,24.97
2019-04-13T04:43:44.887Z,25.20
2019-04-13T04:46:11.360Z,22.97
2019-04-13T04:48:37.906Z,26.93
2019-04-13T04:51:10.929Z,24.00
2019-04-13T04:53:32.749Z,31.40
2019-04-13T04:55:59.214Z,21.23
2019-04-13T04:58:25.667Z,25.53
2019-04-13T05:00:52.137Z,24.63
2019-04-13T05:03:18.513Z,26.23
2019-04-13T05:05:44.960Z,24.23
2019-04-13T05:08:14.474Z,23.13
2019-04-13T05:10:39.843Z,25.20
2019-04-13T05:13:06.870Z,26.80
2019-04-13T05:15:33.319Z,25.20
2019-04-13T05:17:59.783Z,24.53
2019-04-13T05:20:26.222Z,26.07
2019-04-13T05:22:52.700Z,26.63
2019-04-13T05:25:19.157Z,25.20
2019-04-13T05:27:45.614Z,26.50
2019-04-13T05:30:12.202Z,24.63
2019-04-13T05:32:38.680Z,24.70
2019-04-13T05:35:05.430Z,25.53
2019-04-13T05:37:31.899Z,25.17
2019-04-13T05:39:58.363Z,25.40
2019-04-13T05:42:24.838Z,23.60
2019-04-13T05:44:51.294Z,27.30
2019-04-13T05:47:17.676Z,24.30
2019-04-13T05:49:44.223Z,27.33
2019-04-13T05:52:10.691Z,25.33
2019-04-13T05:54:37.047Z,24.77
2019-04-13T05:57:03.598Z,24.63
2019-04-13T05:59:30.070Z,27.93
2019-04-13T06:01:56.526Z,28.27
2019-04-13T06:04:22.989Z,28.60
2019-04-13T06:06:59.440Z,29.63
2019-04-13T06:09:17.803Z,26.97
2019-04-13T06:11:45.523Z,26.67
2019-04-13T06:14:12.222Z,25.10
2019-04-13T06:16:40.281Z,26.17
2019-04-13T06:19:06.850Z,23.77
2019-04-13T06:21:33.299Z,27.90
2019-04-13T06:23:59.673Z,28.17
2019-04-13T06:26:26.225Z,25.77
2019-04-13T06:28:52.747Z,27.37
2019-04-13T06:31:21.103Z,25.97
2019-04-13T06:33:47.605Z,26.17
2019-04-13T06:36:14.043Z,26.07
2019-04-13T06:38:40.416Z,25.13
2019-04-13T06:41:10.833Z,26.93
2019-04-13T06:43:35.235Z,25.13
2019-04-13T06:46:01.671Z,23.03
2019-04-13T06:48:28.256Z,27.90
2019-04-13T06:50:54.610Z,25.13
2019-04-13T06:53:21.089Z,26.33
2019-04-13T06:55:47.535Z,25.53
2019-04-13T06:58:15.836Z,25.73
2019-04-13T07:00:42.340Z,23.70
2019-04-13T07:03:08.796Z,26.17
2019-04-13T07:05:35.267Z,27.93
2019-04-13T07:08:03.611Z,26.20
2019-04-13T07:10:43.569Z,28.73
2019-04-13T07:13:02.153Z,25.70
2019-04-13T07:15:45.719Z,26.47
2019-04-13T07:17:58.834Z,25.73
2019-04-13T07:20:25.387Z,25.17
2019-04-13T07:22:54.083Z,26.47
2019-04-13T07:25:20.325Z,23.40
2019-04-13T07:27:46.685Z,26.67
2019-04-13T07:30:14.301Z,22.83
2019-04-13T07:32:40.851Z,25.77
2019-04-13T07:35:09.553Z,27.47
2019-04-13T07:37:36.890Z,25.90
2019-04-13T07:40:05.284Z,24.23
2019-04-13T07:42:31.746Z,26.33
2019-04-13T07:45:00.126Z,28.40
2019-04-13T07:47:28.471Z,25.97
2019-04-13T07:49:56.855Z,26.30
2019-04-13T07:52:28.891Z,25.77
2019-04-13T07:54:53.602Z,24.57
2019-04-13T07:57:20.002Z,25.00
2019-04-13T07:59:48.046Z,24.73
2019-04-13T08:02:15.719Z,21.87
2019-04-13T08:04:42.179Z,21.73
2019-04-13T08:07:08.743Z,29.73
2019-04-13T08:09:35.183Z,22.50
2019-04-13T08:12:01.759Z,26.47
2019-04-13T08:14:30.130Z,23.33
2019-04-13T08:16:56.587Z,24.27
2019-04-13T08:19:24.936Z,22.00
2019-04-13T08:21:51.419Z,22.40
2019-04-13T08:24:17.860Z,20.53
2019-04-13T08:26:46.536Z,25.23
2019-04-13T08:29:12.600Z,23.00
2019-04-13T08:31:39.267Z,21.17
2019-04-13T08:34:05.818Z,22.27
2019-04-13T08:36:32.208Z,22.73
2019-04-13T08:38:59.445Z,22.27
2019-04-13T08:41:26.103Z,23.37
2019-04-13T08:43:52.466Z,20.33
2019-04-13T08:46:19.014Z,19.53
2019-04-13T08:48:45.723Z,22.27
2019-04-13T08:51:15.324Z,22.40
2019-04-13T08:53:40.638Z,23.43
2019-04-13T08:56:07.087Z,20.90
2019-04-13T08:58:34.585Z,25.70
2019-04-13T09:01:01.103Z,24.47
2019-04-13T09:03:27.562Z,26.37
2019-04-13T09:05:54.017Z,22.87
2019-04-13T09:08:28.718Z,22.57
2019-04-13T09:10:49.341Z,21.33
2019-04-13T09:13:15.903Z,22.13
2019-04-13T09:15:46.412Z,21.43
2019-04-13T09:18:12.638Z,21.57
2019-04-13T09:20:41.145Z,19.53
2019-04-13T09:23:08.829Z,19.60
2019-04-13T09:25:35.562Z,20.87
2019-04-13T09:28:02.132Z,20.67
2019-04-13T09:30:29.641Z,19.97
2019-04-13T09:32:56.009Z,20.97
2019-04-13T09:35:25.302Z,23.67
2019-04-13T09:37:50.826Z,20.63
2019-04-13T09:40:17.371Z,20.97
2019-04-13T09:42:47.054Z,21.87
2019-04-13T09:45:12.285Z,20.27
2019-04-13T09:47:41.994Z,18.53
2019-04-13T09:50:07.239Z,20.53
2019-04-13T09:52:33.800Z,21.02
2019-04-13T09:55:00.267Z,18.50
2019-04-13T09:57:26.779Z,17.73
2019-04-13T09:59:57.335Z,19.00
2019-04-13T10:02:25.870Z,18.27
2019-04-13T10:04:51.916Z,17.23
2019-04-13T10:07:18.378Z,16.65
2019-04-13T10:09:44.848Z,15.60
2019-04-13T10:12:13.203Z,16.52
2019-04-13T10:14:41.520Z,17.82
2019-04-13T10:17:09.879Z,17.50
2019-04-13T10:19:36.335Z,16.40
2019-04-13T10:22:02.799Z,16.50
2019-04-13T10:24:31.229Z,16.57
2019-04-13T10:26:57.743Z,16.60
2019-04-13T10:29:24.363Z,17.82
2019-04-13T10:31:50.805Z,19.25
2019-04-13T10:34:17.178Z,18.37
2019-04-13T10:36:43.731Z,15.60
2019-04-13T10:39:12.111Z,19.75
2019-04-13T10:41:38.467Z,15.30
2019-04-13T10:44:07.925Z,17.87
2019-04-13T10:46:35.102Z,18.10
2019-04-13T10:49:03.419Z,17.00
2019-04-13T10:51:33.722Z,17.95
2019-04-13T10:54:00.480Z,16.15
2019-04-13T10:56:26.919Z,16.82
2019-04-13T10:58:55.196Z,17.37
2019-04-13T11:01:21.731Z,16.97
2019-04-13T11:03:48.091Z,16.97
2019-04-13T11:06:14.567Z,18.83
2019-04-13T11:08:41.034Z,22.47
2019-04-13T11:11:07.407Z,18.53
2019-04-13T11:13:33.875Z,20.17
2019-04-13T11:16:00.335Z,17.80
2019-04-13T11:18:26.703Z,22.23
2019-04-13T11:20:53.181Z,19.23
2019-04-13T11:23:19.627Z,19.07
2019-04-13T11:25:46.111Z,18.57
2019-04-13T11:28:12.491Z,16.77
2019-04-13T11:30:39.853Z,20.32
2019-04-13T11:33:06.329Z,19.25
2019-04-13T11:35:35.428Z,20.20
2019-04-13T11:38:01.072Z,19.80
2019-04-13T11:40:27.563Z,20.45
2019-04-13T11:42:55.825Z,16.02
2019-04-13T11:45:24.105Z,17.77
2019-04-13T11:47:52.451Z,18.30
2019-04-13T11:50:20.741Z,17.20
2019-04-13T11:52:47.087Z,17.10
2019-04-13T11:55:13.743Z,18.55
2019-04-13T11:57:40.221Z,17.50
2019-04-13T12:00:08.598Z,17.10
2019-04-13T12:02:37.003Z,17.30
2019-04-13T12:05:06.051Z,16.80
2019-04-13T12:07:34.474Z,17.35
2019-04-13T12:10:03.459Z,16.62
2019-04-13T12:12:32.342Z,15.08
2019-04-13T12:15:00.595Z,18.10
2019-04-13T12:17:29.689Z,20.00
2019-04-13T12:19:58.027Z,16.23
2019-04-13T12:22:26.321Z,17.80
2019-04-13T12:24:52.776Z,16.10
2019-04-13T12:27:19.239Z,16.23
2019-04-13T12:29:45.632Z,16.05
2019-04-13T12:32:14.023Z,17.05
2019-04-13T12:34:40.467Z,17.12
2019-04-13T12:37:09.180Z,19.27
2019-04-13T12:39:37.102Z,16.32
2019-04-13T12:42:05.800Z,19.67
2019-04-13T12:44:37.488Z,16.45
2019-04-13T12:47:01.287Z,17.07
2019-04-13T12:49:27.947Z,19.37
2019-04-13T12:51:54.327Z,19.20
2019-04-13T12:54:20.867Z,16.27
2019-04-13T12:56:47.343Z,18.50
2019-04-13T12:59:14.905Z,16.17
2019-04-13T13:01:45.408Z,15.03
2019-04-13T13:04:11.736Z,17.17
2019-04-13T13:06:38.299Z,17.87
2019-04-13T13:09:09.435Z,18.70
2019-04-13T13:11:33.418Z,17.73
2019-04-13T13:13:59.813Z,17.02
2019-04-13T13:16:26.254Z,14.55
2019-04-13T13:18:52.724Z,17.20
2019-04-13T13:21:19.072Z,16.77
2019-04-13T13:23:45.540Z,17.10
2019-04-13T13:26:11.987Z,18.40
2019-04-13T13:28:38.448Z,16.93
2019-04-13T13:31:04.834Z,18.12
2019-04-13T13:33:31.211Z,17.73
2019-04-13T13:35:57.669Z,17.80
2019-04-13T13:38:24.127Z,17.35
2019-04-13T13:40:50.599Z,16.70
2019-04-13T13:43:16.975Z,16.12
2019-04-13T13:45:43.523Z,17.27
2019-04-13T13:48:10.227Z,20.40
2019-04-13T13:50:36.615Z,18.35
2019-04-13T13:53:03.286Z,17.87
2019-04-13T13:55:29.661Z,16.10
2019-04-13T13:57:58.023Z,20.08
2019-04-13T14:00:26.449Z,18.77
2019-04-13T14:02:52.895Z,21.40
2019-04-13T14:05:19.254Z,16.48
2019-04-13T14:07:45.708Z,19.23
2019-04-13T14:10:13.678Z,20.43
2019-04-13T14:12:42.003Z,16.93
2019-04-13T14:15:11.497Z,19.70
2019-04-13T14:17:36.883Z,17.23
2019-04-13T14:20:04.355Z,18.12
2019-04-13T14:22:30.795Z,15.98
2019-04-13T14:24:57.273Z,17.77
2019-04-13T14:27:23.725Z,17.62
2019-04-13T14:29:50.271Z,17.62
2019-04-13T14:32:16.818Z,16.25
2019-04-13T14:34:43.187Z,19.25
2019-04-13T14:37:09.558Z,19.15
2019-04-13T14:39:36.040Z,17.80
2019-04-13T14:42:02.500Z,16.80
2019-04-13T14:44:28.863Z,17.03
2019-04-13T14:46:55.225Z,19.13
2019-04-13T14:49:21.708Z,20.10
2019-04-13T14:51:52.431Z,14.47
2019-04-13T14:54:19.443Z,18.67
2019-04-13T14:56:45.175Z,15.18
2019-04-13T14:59:11.518Z,17.55
2019-04-13T15:01:37.843Z,20.12
2019-04-13T15:04:04.792Z,18.55
2019-04-13T15:06:31.287Z,17.20
2019-04-13T15:08:57.738Z,18.27
2019-04-13T15:11:24.219Z,16.23
2019-04-13T15:13:51.506Z,16.15
2019-04-13T15:16:20.453Z,16.77
2019-04-13T15:18:49.092Z,18.50
2019-04-13T15:21:17.740Z,19.33
2019-04-13T15:23:45.609Z,16.97
2019-04-13T15:26:12.392Z,16.70
2019-04-13T15:28:40.941Z,19.27
2019-04-13T15:31:08.111Z,16.90
2019-04-13T15:33:35.018Z,18.93
2019-04-13T15:36:04.550Z,22.40
2019-04-13T15:38:31.256Z,18.57
2019-04-13T15:41:00.607Z,20.43
2019-04-13T15:43:31.371Z,18.77
2019-04-13T15:45:55.177Z,19.10
2019-04-13T15:48:22.502Z,18.60
2019-04-13T15:50:49.335Z,17.27
2019-04-13T15:53:16.069Z,19.80
2019-04-13T15:55:42.526Z,20.43
2019-04-13T15:58:10.011Z,18.27
2019-04-13T16:00:36.477Z,19.10
2019-04-13T16:03:03.663Z,53.67
2019-04-13T16:05:30.896Z,22.90
2019-04-13T16:07:57.379Z,20.17
2019-04-13T16:10:25.835Z,19.47
2019-04-13T16:12:54.231Z,17.67
2019-04-13T16:15:22.883Z,18.40
2019-04-13T16:17:49.595Z,20.77
2019-04-13T16:20:16.114Z,17.03
2019-04-13T16:22:42.949Z,18.93
2019-04-13T16:25:09.948Z,17.73
2019-04-13T16:27:38.359Z,18.50
2019-04-13T16:30:23.712Z,18.43
2019-04-13T16:32:53.466Z,17.17
2019-04-13T16:35:22.191Z,18.77
2019-04-13T16:37:50.640Z,18.40
2019-04-13T16:40:18.376Z,18.83
2019-04-13T16:42:45.156Z,20.07
2019-04-13T16:45:13.265Z,17.97
2019-04-13T16:47:41.787Z,20.47
2019-04-13T16:50:13.822Z,19.30
2019-04-13T16:52:40.805Z,18.43
2019-04-13T16:55:11.639Z,21.73
2019-04-13T16:57:41.664Z,18.33
2019-04-13T17:00:10.253Z,21.67
2019-04-13T17:02:38.590Z,18.30
2019-04-13T17:05:07.302Z,19.80
2019-04-13T17:07:34.045Z,19.50
2019-04-13T17:10:00.458Z,19.50
2019-04-13T17:12:34.243Z,18.40
2019-04-13T17:14:56.301Z,18.57
2019-04-13T17:17:22.758Z,20.70
2019-04-13T17:19:51.426Z,19.73
2019-04-13T17:22:19.919Z,19.50
2019-04-13T17:24:48.887Z,18.33
2019-04-13T17:27:17.366Z,18.90
2019-04-13T17:29:45.962Z,19.57
2019-04-13T17:32:14.391Z,18.07
2019-04-13T17:34:42.715Z,19.43
2019-04-13T17:37:11.070Z,18.57
2019-04-13T17:39:38.212Z,21.67
2019-04-13T17:42:07.656Z,22.37
2019-04-13T17:44:37.338Z,23.10
2019-04-13T17:47:06.416Z,24.43
2019-04-13T17:49:34.790Z,22.80
2019-04-13T17:52:03.152Z,20.83
2019-04-13T17:54:35.224Z,24.87
2019-04-13T17:57:01.801Z,19.60
2019-04-13T17:59:30.222Z,21.57
2019-04-13T18:01:58.809Z,28.87
2019-04-13T18:04:27.191Z,20.30
2019-04-13T18:06:54.751Z,21.17
2019-04-13T18:09:21.152Z,20.07
2019-04-13T18:11:49.414Z,23.13
2019-04-13T18:14:17.702Z,35.20
2019-04-13T18:16:46.359Z,26.77
2019-04-13T18:19:14.918Z,19.37
2019-04-13T18:21:42.656Z,22.20
2019-04-13T18:24:09.426Z,22.27
2019-04-13T18:26:35.890Z,29.53
2019-04-13T18:29:03.188Z,23.80
2019-04-13T18:31:29.824Z,24.03
2019-04-13T18:33:57.422Z,29.47
2019-04-13T18:36:24.047Z,22.27
2019-04-13T18:38:51.693Z,24.30
2019-04-13T18:41:18.686Z,24.07
2019-04-13T18:43:45.467Z,21.20
2019-04-13T18:46:13.307Z,20.77
2019-04-13T18:48:40.342Z,24.27
2019-04-13T18:51:06.795Z,24.20
2019-04-13T18:53:33.242Z,22.50
2019-04-13T18:56:00.311Z,22.67
2019-04-13T18:58:27.175Z,21.03
2019-04-13T19:00:53.658Z,20.33
2019-04-13T19:03:20.112Z,22.77
2019-04-13T19:05:46.684Z,23.00
2019-04-13T19:08:13.042Z,18.93
2019-04-13T19:10:39.593Z,76.10
2019-04-13T19:13:07.898Z,75.87
2019-04-13T19:15:34.537Z,24.40
2019-04-13T19:18:01.093Z,22.40
2019-04-13T19:20:27.436Z,23.40
2019-04-13T19:22:54.009Z,28.57
2019-04-13T19:25:20.459Z,22.13
2019-04-13T19:28:23.758Z,30.57
2019-04-13T19:30:50.731Z,49.93
2019-04-13T19:33:23.066Z,30.90
2019-04-13T19:35:49.922Z,35.90
2019-04-13T19:38:16.369Z,34.33
2019-04-13T19:40:42.816Z,27.77
2019-04-13T19:43:16.358Z,33.83
2019-04-13T19:45:37.552Z,26.27
2019-04-13T19:48:03.930Z,28.60
2019-04-13T19:50:30.788Z,23.27
2019-04-13T19:52:59.083Z,28.70
2019-04-13T19:55:25.527Z,26.87
2019-04-13T19:57:51.994Z,35.23
2019-04-13T20:00:22.334Z,28.80
2019-04-13T20:02:48.617Z,36.87
2019-04-13T20:05:15.068Z,36.37
2019-04-13T20:07:41.543Z,30.20
2019-04-13T20:10:08.100Z,26.17
2019-04-13T20:12:34.459Z,25.13
2019-04-13T20:15:01.231Z,24.77
2019-04-13T20:17:27.783Z,23.20
2019-04-13T20:19:54.244Z,25.00
2019-04-13T20:22:20.699Z,24.93
2019-04-13T20:24:47.143Z,25.60
2019-04-13T20:27:13.641Z,21.23
2019-04-13T20:29:40.409Z,24.43
2019-04-13T20:32:08.028Z,23.83
2019-04-13T20:34:35.669Z,23.20
2019-04-13T20:37:03.406Z,25.33
2019-04-13T20:39:32.940Z,23.77
2019-04-13T20:42:06.022Z,25.73
2019-04-13T20:44:28.157Z,27.97
2019-04-13T20:46:55.860Z,23.47
2019-04-13T20:49:23.647Z,24.57
2019-04-13T20:51:50.352Z,29.20
2019-04-13T20:54:16.823Z,26.50
2019-04-13T20:56:43.174Z,24.63
2019-04-13T20:59:10.697Z,29.67
2019-04-13T21:01:38.537Z,25.63
2019-04-13T21:04:05.102Z,25.23
2019-04-13T21:06:32.551Z,26.17
2019-04-13T21:08:59.338Z,26.30
2019-04-13T21:11:25.883Z,24.70
2019-04-13T21:14:02.921Z,25.00
2019-04-13T21:16:21.420Z,25.17
2019-04-13T21:18:47.886Z,25.77
2019-04-13T21:21:14.897Z,23.57
2019-04-13T21:23:42.705Z,26.50
2019-04-13T21:26:09.226Z,27.57
2019-04-13T21:28:36.557Z,26.13
2019-04-13T21:31:04.198Z,25.83
2019-04-13T21:33:30.761Z,25.67
2019-04-13T21:35:57.854Z,23.80
2019-04-13T21:38:25.652Z,28.27
2019-04-13T21:40:52.175Z,26.80
2019-04-13T21:43:19.375Z,28.07
2019-04-13T21:45:47.045Z,25.00
2019-04-13T21:48:13.592Z,29.03
2019-04-13T21:50:41.946Z,27.63
2019-04-13T21:53:11.616Z,29.70
2019-04-13T21:55:40.115Z,28.23
2019-04-13T21:58:07.826Z,28.43
2019-04-13T22:00:38.170Z,28.23
2019-04-13T22:03:05.620Z,28.60
2019-04-13T22:05:32.142Z,29.63
2019-04-13T22:07:59.267Z,25.83
2019-04-13T22:10:26.735Z,24.90
2019-04-13T22:12:53.142Z,30.33
2019-04-13T22:15:20.263Z,27.57
2019-04-13T22:17:46.838Z,28.60
2019-04-13T22:20:14.432Z,25.93
2019-04-13T22:22:40.874Z,28.10
2019-04-13T22:25:08.222Z,29.07
2019-04-13T22:27:45.926Z,26.07
2019-04-13T22:30:06.358Z,28.50
2019-04-13T22:32:34.729Z,26.00
2019-04-13T22:35:04.554Z,26.57
2019-04-13T22:37:31.967Z,25.33
2019-04-13T22:39:59.624Z,26.10
2019-04-13T22:42:27.445Z,25.87
2019-04-13T22:44:59.786Z,25.93
2019-04-13T22:47:23.393Z,28.17
2019-04-13T22:49:51.839Z,29.10
2019-04-13T22:52:21.421Z,28.43
2019-04-13T22:54:49.896Z,28.43
2019-04-13T22:57:19.406Z,30.43
2019-04-13T22:59:46.524Z,28.27
2019-04-13T23:02:14.871Z,26.90
2019-04-13T23:04:41.348Z,29.93
2019-04-13T23:07:08.595Z,29.60
2019-04-13T23:09:35.168Z,27.93
2019-04-13T23:12:02.772Z,26.43
2019-04-13T23:14:31.287Z,26.17
2019-04-13T23:16:58.499Z,25.77
2019-04-13T23:19:25.003Z,24.43
2019-04-13T23:21:51.362Z,27.23
2019-04-13T23:24:17.711Z,25.60
2019-04-13T23:26:45.155Z,29.00
2019-04-13T23:29:12.744Z,27.33
2019-04-13T23:31:39.386Z,28.60
2019-04-13T23:34:07.045Z,26.07
2019-04-13T23:36:33.504Z,29.67
2019-04-13T23:38:59.947Z,25.80
2019-04-13T23:41:26.414Z,26.80
2019-04-13T23:43:53.968Z,28.47
2019-04-13T23:46:20.531Z,24.93
2019-04-13T23:48:46.878Z,28.17
2019-04-13T23:51:14.197Z,25.87
2019-04-13T23:53:40.690Z,31.07
2019-04-13T23:56:08.958Z,28.00
2019-04-13T23:58:40.963Z,27.27
